sensor_id;sensor_type;location;lat;lon;timestamp;P1;P2;P0
77538;PMS7003;67783;51.656;16.106;2023-05-29T00:00:51;0;0;0
77538;PMS7003;67783;51.656;16.106;2023-05-29T00:04:03;0;0;0
77538;PMS7003;67783;51.656;16.106;2023-05-29T00:07:05;0;0;0
77538;PMS7003;67783;51.656;16.106;2023-05-29T00:10:07;0;0;0
77538;PMS7003;67783;51.656;16.106;2023-05-29T00:13:10;2;0;0
77538;PMS7003;67783;51.656;16.106;2023-05-29T00:16:12;0;0;0
77538;PMS7003;67783;51.656;16.106;2023-05-29T00:19:23;0;0;0
77538;PMS7003;67783;51.656;16.106;2023-05-29T00:22:26;0;0;0
77538;PMS7003;67783;51.656;16.106;2023-05-29T00:25:28;0;0;0
77538;PMS7003;67783;51.656;16.106;2023-05-29T00:28:29;0;0;0
77538;PMS7003;67783;51.656;16.106;2023-05-29T00:31:31;0;0;0
77538;PMS7003;67783;51.656;16.106;2023-05-29T00:34:32;0;0;0
77538;PMS7003;67783;51.656;16.106;2023-05-29T00:37:34;1;1;0
77538;PMS7003;67783;51.656;16.106;2023-05-29T00:40:42;1;1;0
77538;PMS7003;67783;51.656;16.106;2023-05-29T00:43:43;0;0;0
77538;PMS7003;67783;51.656;16.106;2023-05-29T00:46:45;0;0;0
77538;PMS7003;67783;51.656;16.106;2023-05-29T00:49:48;0;0;0
77538;PMS7003;67783;51.656;16.106;2023-05-29T00:52:52;1;0;0
77538;PMS7003;67783;51.656;16.106;2023-05-29T00:55:59;0;0;0
77538;PMS7003;67783;51.656;16.106;2023-05-29T00:59:03;2;0;0
77538;PMS7003;67783;51.656;16.106;2023-05-29T01:02:05;0;0;0
77538;PMS7003;67783;51.656;16.106;2023-05-29T01:05:07;2;0;0
77538;PMS7003;67783;51.656;16.106;2023-05-29T01:08:12;0;0;0
77538;PMS7003;67783;51.656;16.106;2023-05-29T01:11:27;1;1;0
77538;PMS7003;67783;51.656;16.106;2023-05-29T01:27:37;2;1;0
77538;PMS7003;67783;51.656;16.106;2023-05-29T01:30:41;2;1;1
77538;PMS7003;67783;51.656;16.106;2023-05-29T01:33:53;0;0;0
77538;PMS7003;67783;51.656;16.106;2023-05-29T01:36:56;1;1;1
77538;PMS7003;67783;51.656;16.106;2023-05-29T01:39:58;1;1;0
77538;PMS7003;67783;51.656;16.106;2023-05-29T01:43:01;1;1;0
77538;PMS7003;67783;51.656;16.106;2023-05-29T01:46:03;0;0;0
77538;PMS7003;67783;51.656;16.106;2023-05-29T01:49:11;0;0;0
77538;PMS7003;67783;51.656;16.106;2023-05-29T01:52:13;0;0;0
77538;PMS7003;67783;51.656;16.106;2023-05-29T01:55:15;2;1;1
77538;PMS7003;67783;51.656;16.106;2023-05-29T01:58:17;2;2;1
77538;PMS7003;67783;51.656;16.106;2023-05-29T02:01:21;1;1;1
77538;PMS7003;67783;51.656;16.106;2023-05-29T02:04:31;2;2;1
77538;PMS7003;67783;51.656;16.106;2023-05-29T02:07:33;2;1;1
77538;PMS7003;67783;51.656;16.106;2023-05-29T02:10:38;1;1;1
77538;PMS7003;67783;51.656;16.106;2023-05-29T02:13:41;2;2;2
77538;PMS7003;67783;51.656;16.106;2023-05-29T02:16:43;3;1;1
77538;PMS7003;67783;51.656;16.106;2023-05-29T02:19:52;0;0;0
77538;PMS7003;67783;51.656;16.106;2023-05-29T02:22:54;1;1;0
77538;PMS7003;67783;51.656;16.106;2023-05-29T02:25:55;2;1;1
77538;PMS7003;67783;51.656;16.106;2023-05-29T02:28:57;1;1;1
77538;PMS7003;67783;51.656;16.106;2023-05-29T02:31:58;3;1;1
77538;PMS7003;67783;51.656;16.106;2023-05-29T02:35:00;1;1;1
77538;PMS7003;67783;51.656;16.106;2023-05-29T02:38:01;2;1;1
77538;PMS7003;67783;51.656;16.106;2023-05-29T02:41:07;2;2;2
77538;PMS7003;67783;51.656;16.106;2023-05-29T02:44:08;1;1;1
77538;PMS7003;67783;51.656;16.106;2023-05-29T02:47:10;4;1;1
77538;PMS7003;67783;51.656;16.106;2023-05-29T02:50:11;1;1;1
77538;PMS7003;67783;51.656;16.106;2023-05-29T02:53:15;1;1;1
77538;PMS7003;67783;51.656;16.106;2023-05-29T02:56:27;3;1;1
77538;PMS7003;67783;51.656;16.106;2023-05-29T02:59:29;3;0;0
77538;PMS7003;67783;51.656;16.106;2023-05-29T03:02:32;1;1;1
77538;PMS7003;67783;51.656;16.106;2023-05-29T03:05:35;2;2;1
77538;PMS7003;67783;51.656;16.106;2023-05-29T03:08:37;2;2;1
77538;PMS7003;67783;51.656;16.106;2023-05-29T03:11:48;1;1;0
77538;PMS7003;67783;51.656;16.106;2023-05-29T03:14:52;1;1;0
77538;PMS7003;67783;51.656;16.106;2023-05-29T03:17:54;1;1;1
77538;PMS7003;67783;51.656;16.106;2023-05-29T03:20:55;1;1;1
77538;PMS7003;67783;51.656;16.106;2023-05-29T03:23:57;1;1;1
77538;PMS7003;67783;51.656;16.106;2023-05-29T03:27:08;1;1;1
77538;PMS7003;67783;51.656;16.106;2023-05-29T03:30:11;2;2;1
77538;PMS7003;67783;51.656;16.106;2023-05-29T03:33:14;3;3;2
77538;PMS7003;67783;51.656;16.106;2023-05-29T03:36:15;2;2;2
77538;PMS7003;67783;51.656;16.106;2023-05-29T03:39:18;2;1;0
77538;PMS7003;67783;51.656;16.106;2023-05-29T03:42:29;2;2;1
77538;PMS7003;67783;51.656;16.106;2023-05-29T03:45:31;4;3;2
77538;PMS7003;67783;51.656;16.106;2023-05-29T03:48:33;2;1;1
77538;PMS7003;67783;51.656;16.106;2023-05-29T03:51:34;3;2;1
77538;PMS7003;67783;51.656;16.106;2023-05-29T03:54:36;2;2;1
77538;PMS7003;67783;51.656;16.106;2023-05-29T03:57:38;2;2;1
77538;PMS7003;67783;51.656;16.106;2023-05-29T04:00:43;2;2;2
77538;PMS7003;67783;51.656;16.106;2023-05-29T04:03:47;5;3;3
77538;PMS7003;67783;51.656;16.106;2023-05-29T04:06:49;4;4;2
77538;PMS7003;67783;51.656;16.106;2023-05-29T04:09:50;5;5;2
77538;PMS7003;67783;51.656;16.106;2023-05-29T04:12:52;4;4;3
77538;PMS7003;67783;51.656;16.106;2023-05-29T04:15:53;3;3;3
77538;PMS7003;67783;51.656;16.106;2023-05-29T04:18:55;3;3;3
77538;PMS7003;67783;51.656;16.106;2023-05-29T04:21:57;2;2;1
77538;PMS7003;67783;51.656;16.106;2023-05-29T04:25:03;5;5;3
77538;PMS7003;67783;51.656;16.106;2023-05-29T04:28:05;4;3;3
77538;PMS7003;67783;51.656;16.106;2023-05-29T04:31:06;5;3;3
77538;PMS7003;67783;51.656;16.106;2023-05-29T04:34:09;5;4;3
77538;PMS7003;67783;51.656;16.106;2023-05-29T04:37:11;6;4;3
77538;PMS7003;67783;51.656;16.106;2023-05-29T04:40:23;5;5;4
77538;PMS7003;67783;51.656;16.106;2023-05-29T04:43:24;8;5;4
77538;PMS7003;67783;51.656;16.106;2023-05-29T04:46:29;7;4;3
77538;PMS7003;67783;51.656;16.106;2023-05-29T04:49:31;6;5;4
77538;PMS7003;67783;51.656;16.106;2023-05-29T04:52:32;4;4;3
77538;PMS7003;67783;51.656;16.106;2023-05-29T04:55:43;6;4;3
77538;PMS7003;67783;51.656;16.106;2023-05-29T04:58:46;5;5;4
77538;PMS7003;67783;51.656;16.106;2023-05-29T05:01:48;5;4;3
77538;PMS7003;67783;51.656;16.106;2023-05-29T05:04:50;12;5;4
77538;PMS7003;67783;51.656;16.106;2023-05-29T05:07:52;5;3;2
77538;PMS7003;67783;51.656;16.106;2023-05-29T05:11:04;7;5;5
77538;PMS7003;67783;51.656;16.106;2023-05-29T05:14:07;8;8;7
77538;PMS7003;67783;51.656;16.106;2023-05-29T05:17:08;4;4;3
77538;PMS7003;67783;51.656;16.106;2023-05-29T05:20:10;5;5;4
77538;PMS7003;67783;51.656;16.106;2023-05-29T05:23:13;10;7;4
77538;PMS7003;67783;51.656;16.106;2023-05-29T05:26:24;5;5;4
77538;PMS7003;67783;51.656;16.106;2023-05-29T05:29:28;4;4;3
77538;PMS7003;67783;51.656;16.106;2023-05-29T05:32:30;6;4;4
77538;PMS7003;67783;51.656;16.106;2023-05-29T05:35:32;5;5;3
77538;PMS7003;67783;51.656;16.106;2023-05-29T05:38:34;6;6;5
77538;PMS7003;67783;51.656;16.106;2023-05-29T05:41:45;7;4;2
77538;PMS7003;67783;51.656;16.106;2023-05-29T05:44:46;4;4;3
77538;PMS7003;67783;51.656;16.106;2023-05-29T05:47:48;5;5;4
77538;PMS7003;67783;51.656;16.106;2023-05-29T05:50:50;3;2;2
77538;PMS7003;67783;51.656;16.106;2023-05-29T05:53:52;3;3;3
77538;PMS7003;67783;51.656;16.106;2023-05-29T05:56:54;4;3;2
77538;PMS7003;67783;51.656;16.106;2023-05-29T05:59:56;3;3;3
77538;PMS7003;67783;51.656;16.106;2023-05-29T06:03:01;4;4;4
77538;PMS7003;67783;51.656;16.106;2023-05-29T06:06:04;4;3;2
77538;PMS7003;67783;51.656;16.106;2023-05-29T06:09:09;5;3;3
77538;PMS7003;67783;51.656;16.106;2023-05-29T06:12:12;3;3;2
77538;PMS7003;67783;51.656;16.106;2023-05-29T06:15:14;4;4;3
77538;PMS7003;67783;51.656;16.106;2023-05-29T06:18:22;5;3;3
77538;PMS7003;67783;51.656;16.106;2023-05-29T06:21:24;4;4;3
77538;PMS7003;67783;51.656;16.106;2023-05-29T06:24:25;6;4;3
77538;PMS7003;67783;51.656;16.106;2023-05-29T06:27:27;4;2;2
77538;PMS7003;67783;51.656;16.106;2023-05-29T06:30:28;4;4;3
77538;PMS7003;67783;51.656;16.106;2023-05-29T06:33:30;3;3;3
77538;PMS7003;67783;51.656;16.106;2023-05-29T06:36:31;5;5;3
77538;PMS7003;67783;51.656;16.106;2023-05-29T06:39:36;6;3;3
77538;PMS7003;67783;51.656;16.106;2023-05-29T06:42:39;3;3;3
77538;PMS7003;67783;51.656;16.106;2023-05-29T06:45:41;5;5;3
77538;PMS7003;67783;51.656;16.106;2023-05-29T06:48:43;4;4;3
77538;PMS7003;67783;51.656;16.106;2023-05-29T06:51:44;3;3;3
77538;PMS7003;67783;51.656;16.106;2023-05-29T06:54:57;3;3;2
77538;PMS7003;67783;51.656;16.106;2023-05-29T06:57:58;3;3;2
77538;PMS7003;67783;51.656;16.106;2023-05-29T07:01:00;3;3;3
77538;PMS7003;67783;51.656;16.106;2023-05-29T07:04:02;1;1;1
77538;PMS7003;67783;51.656;16.106;2023-05-29T07:07:04;3;3;3
77538;PMS7003;67783;51.656;16.106;2023-05-29T07:10:06;3;3;2
77538;PMS7003;67783;51.656;16.106;2023-05-29T07:13:08;4;4;3
77538;PMS7003;67783;51.656;16.106;2023-05-29T07:16:13;5;5;3
77538;PMS7003;67783;51.656;16.106;2023-05-29T07:19:15;6;5;3
77538;PMS7003;67783;51.656;16.106;2023-05-29T07:22:17;8;3;2
77538;PMS7003;67783;51.656;16.106;2023-05-29T07:25:19;3;2;2
77538;PMS7003;67783;51.656;16.106;2023-05-29T07:28:21;3;3;3
77538;PMS7003;67783;51.656;16.106;2023-05-29T07:31:23;2;2;1
77538;PMS7003;67783;51.656;16.106;2023-05-29T07:34:24;2;1;1
77538;PMS7003;67783;51.656;16.106;2023-05-29T07:37:29;4;1;1
77538;PMS7003;67783;51.656;16.106;2023-05-29T07:40:32;2;2;2
77538;PMS7003;67783;51.656;16.106;2023-05-29T07:43:33;1;1;1
77538;PMS7003;67783;51.656;16.106;2023-05-29T07:46:35;3;3;2
77538;PMS7003;67783;51.656;16.106;2023-05-29T07:49:37;1;1;1
77538;PMS7003;67783;51.656;16.106;2023-05-29T07:52:39;3;1;1
77538;PMS7003;67783;51.656;16.106;2023-05-29T07:55:40;2;2;1
77538;PMS7003;67783;51.656;16.106;2023-05-29T07:58:45;3;3;3
77538;PMS7003;67783;51.656;16.106;2023-05-29T08:01:48;7;3;3
77538;PMS7003;67783;51.656;16.106;2023-05-29T08:04:50;3;3;3
77538;PMS7003;67783;51.656;16.106;2023-05-29T08:07:52;2;2;2
77538;PMS7003;67783;51.656;16.106;2023-05-29T08:10:54;3;2;2
77538;PMS7003;67783;51.656;16.106;2023-05-29T08:14:05;3;3;3
77538;PMS7003;67783;51.656;16.106;2023-05-29T08:17:08;9;4;3
77538;PMS7003;67783;51.656;16.106;2023-05-29T08:20:10;5;4;3
77538;PMS7003;67783;51.656;16.106;2023-05-29T08:23:12;3;3;3
77538;PMS7003;67783;51.656;16.106;2023-05-29T08:26:13;2;2;2
77538;PMS7003;67783;51.656;16.106;2023-05-29T08:29:26;6;3;2
77538;PMS7003;67783;51.656;16.106;2023-05-29T08:32:27;3;3;2
77538;PMS7003;67783;51.656;16.106;2023-05-29T08:35:29;3;3;2
77538;PMS7003;67783;51.656;16.106;2023-05-29T08:38:31;2;2;2
77538;PMS7003;67783;51.656;16.106;2023-05-29T08:41:36;3;3;2
77538;PMS7003;67783;51.656;16.106;2023-05-29T08:44:47;4;3;3
77538;PMS7003;67783;51.656;16.106;2023-05-29T08:47:53;3;3;2
77538;PMS7003;67783;51.656;16.106;2023-05-29T08:50:57;4;2;2
77538;PMS7003;67783;51.656;16.106;2023-05-29T08:53:59;2;2;2
77538;PMS7003;67783;51.656;16.106;2023-05-29T08:57:01;2;2;2
77538;PMS7003;67783;51.656;16.106;2023-05-29T09:00:07;2;2;2
77538;PMS7003;67783;51.656;16.106;2023-05-29T09:03:20;2;2;1
77538;PMS7003;67783;51.656;16.106;2023-05-29T09:06:23;2;2;2
77538;PMS7003;67783;51.656;16.106;2023-05-29T09:09:33;1;1;1
77538;PMS7003;67783;51.656;16.106;2023-05-29T09:12:36;1;1;0
77538;PMS7003;67783;51.656;16.106;2023-05-29T09:15:38;1;1;1
77538;PMS7003;67783;51.656;16.106;2023-05-29T09:18:43;1;1;1
77538;PMS7003;67783;51.656;16.106;2023-05-29T09:21:47;2;2;0
77538;PMS7003;67783;51.656;16.106;2023-05-29T09:24:54;2;2;2
77538;PMS7003;67783;51.656;16.106;2023-05-29T09:28:01;5;1;1
77538;PMS7003;67783;51.656;16.106;2023-05-29T09:31:13;2;2;1
77538;PMS7003;67783;51.656;16.106;2023-05-29T09:34:25;0;0;0
77538;PMS7003;67783;51.656;16.106;2023-05-29T09:37:30;4;3;2
77538;PMS7003;67783;51.656;16.106;2023-05-29T09:40:38;1;1;1
77538;PMS7003;67783;51.656;16.106;2023-05-29T09:43:48;2;2;2
77538;PMS7003;67783;51.656;16.106;2023-05-29T09:46:50;1;1;1
77538;PMS7003;67783;51.656;16.106;2023-05-29T09:49:52;4;3;2
77538;PMS7003;67783;51.656;16.106;2023-05-29T09:52:58;2;2;2
77538;PMS7003;67783;51.656;16.106;2023-05-29T09:56:02;1;1;1
77538;PMS7003;67783;51.656;16.106;2023-05-29T09:59:09;1;1;1
77538;PMS7003;67783;51.656;16.106;2023-05-29T10:02:13;4;2;1
77538;PMS7003;67783;51.656;16.106;2023-05-29T10:05:16;5;2;2
77538;PMS7003;67783;51.656;16.106;2023-05-29T10:08:19;2;2;2
77538;PMS7003;67783;51.656;16.106;2023-05-29T10:11:22;3;2;2
77538;PMS7003;67783;51.656;16.106;2023-05-29T10:14:28;2;1;1
77538;PMS7003;67783;51.656;16.106;2023-05-29T10:17:34;8;3;2
77538;PMS7003;67783;51.656;16.106;2023-05-29T10:20:39;3;1;1
77538;PMS7003;67783;51.656;16.106;2023-05-29T10:23:54;4;3;2
77538;PMS7003;67783;51.656;16.106;2023-05-29T10:26:58;1;1;1
77538;PMS7003;67783;51.656;16.106;2023-05-29T10:30:06;2;2;1
77538;PMS7003;67783;51.656;16.106;2023-05-29T10:36:42;1;1;1
77538;PMS7003;67783;51.656;16.106;2023-05-29T10:39:45;3;2;1
77538;PMS7003;67783;51.656;16.106;2023-05-29T10:42:50;2;2;1
77538;PMS7003;67783;51.656;16.106;2023-05-29T10:45:59;2;2;1
77538;PMS7003;67783;51.656;16.106;2023-05-29T10:49:02;2;1;0
77538;PMS7003;67783;51.656;16.106;2023-05-29T10:52:04;1;1;1
77538;PMS7003;67783;51.656;16.106;2023-05-29T10:55:06;5;2;2
77538;PMS7003;67783;51.656;16.106;2023-05-29T10:58:15;2;1;1
77538;PMS7003;67783;51.656;16.106;2023-05-29T11:01:23;2;2;1
77538;PMS7003;67783;51.656;16.106;2023-05-29T11:04:28;2;2;1
77538;PMS7003;67783;51.656;16.106;2023-05-29T11:07:50;2;2;2
77538;PMS7003;67783;51.656;16.106;2023-05-29T11:14:00;3;2;2
77538;PMS7003;67783;51.656;16.106;2023-05-29T11:17:05;3;1;1
77538;PMS7003;67783;51.656;16.106;2023-05-29T11:23:18;2;2;2
77538;PMS7003;67783;51.656;16.106;2023-05-29T11:26:30;2;2;2
77538;PMS7003;67783;51.656;16.106;2023-05-29T11:29:33;2;2;2
77538;PMS7003;67783;51.656;16.106;2023-05-29T11:32:36;1;1;1
77538;PMS7003;67783;51.656;16.106;2023-05-29T11:35:40;2;2;2
77538;PMS7003;67783;51.656;16.106;2023-05-29T11:38:42;2;2;2
77538;PMS7003;67783;51.656;16.106;2023-05-29T11:41:51;3;3;2
77538;PMS7003;67783;51.656;16.106;2023-05-29T11:45:09;2;2;2
77538;PMS7003;67783;51.656;16.106;2023-05-29T11:48:09;2;2;1
77538;PMS7003;67783;51.656;16.106;2023-05-29T11:51:17;2;2;2
77538;PMS7003;67783;51.656;16.106;2023-05-29T11:54:19;2;2;1
77538;PMS7003;67783;51.656;16.106;2023-05-29T11:57:21;2;2;1
77538;PMS7003;67783;51.656;16.106;2023-05-29T12:00:24;1;1;1
77538;PMS7003;67783;51.656;16.106;2023-05-29T12:03:26;2;1;1
77538;PMS7003;67783;51.656;16.106;2023-05-29T12:06:38;1;1;1
77538;PMS7003;67783;51.656;16.106;2023-05-29T12:09:40;2;1;1
77538;PMS7003;67783;51.656;16.106;2023-05-29T12:12:41;2;1;1
77538;PMS7003;67783;51.656;16.106;2023-05-29T12:15:43;3;2;2
77538;PMS7003;67783;51.656;16.106;2023-05-29T12:18:45;1;1;1
77538;PMS7003;67783;51.656;16.106;2023-05-29T12:21:47;8;2;2
77538;PMS7003;67783;51.656;16.106;2023-05-29T12:24:48;1;1;1
77538;PMS7003;67783;51.656;16.106;2023-05-29T12:27:55;0;0;0
77538;PMS7003;67783;51.656;16.106;2023-05-29T12:30:59;1;1;0
77538;PMS7003;67783;51.656;16.106;2023-05-29T12:34:01;1;1;1
77538;PMS7003;67783;51.656;16.106;2023-05-29T12:37:08;2;2;0
77538;PMS7003;67783;51.656;16.106;2023-05-29T12:43:27;2;2;1
77538;PMS7003;67783;51.656;16.106;2023-05-29T12:46:35;2;2;1
77538;PMS7003;67783;51.656;16.106;2023-05-29T12:49:43;2;2;2
77538;PMS7003;67783;51.656;16.106;2023-05-29T12:56:05;0;0;0
77538;PMS7003;67783;51.656;16.106;2023-05-29T12:59:10;2;2;1
77538;PMS7003;67783;51.656;16.106;2023-05-29T13:02:15;2;1;0
77538;PMS7003;67783;51.656;16.106;2023-05-29T13:05:17;2;2;2
77538;PMS7003;67783;51.656;16.106;2023-05-29T13:08:20;2;2;2
77538;PMS7003;67783;51.656;16.106;2023-05-29T13:11:22;2;2;1
77538;PMS7003;67783;51.656;16.106;2023-05-29T13:14:23;1;1;1
77538;PMS7003;67783;51.656;16.106;2023-05-29T13:17:35;2;2;1
77538;PMS7003;67783;51.656;16.106;2023-05-29T13:20:37;2;2;1
77538;PMS7003;67783;51.656;16.106;2023-05-29T13:23:38;1;1;1
77538;PMS7003;67783;51.656;16.106;2023-05-29T13:26:40;3;1;1
77538;PMS7003;67783;51.656;16.106;2023-05-29T13:29:42;1;1;1
77538;PMS7003;67783;51.656;16.106;2023-05-29T13:32:44;4;1;1
77538;PMS7003;67783;51.656;16.106;2023-05-29T13:35:46;2;2;2
77538;PMS7003;67783;51.656;16.106;2023-05-29T13:38:50;1;1;1
77538;PMS7003;67783;51.656;16.106;2023-05-29T13:41:52;2;2;2
77538;PMS7003;67783;51.656;16.106;2023-05-29T13:44:53;6;1;1
77538;PMS7003;67783;51.656;16.106;2023-05-29T13:47:55;2;2;1
77538;PMS7003;67783;51.656;16.106;2023-05-29T13:50:57;2;2;1
77538;PMS7003;67783;51.656;16.106;2023-05-29T13:53:59;2;2;1
77538;PMS7003;67783;51.656;16.106;2023-05-29T13:57:01;1;1;1
77538;PMS7003;67783;51.656;16.106;2023-05-29T14:00:06;1;1;1
77538;PMS7003;67783;51.656;16.106;2023-05-29T14:03:08;1;1;1
77538;PMS7003;67783;51.656;16.106;2023-05-29T14:06:10;2;2;1
77538;PMS7003;67783;51.656;16.106;2023-05-29T14:09:12;3;3;2
77538;PMS7003;67783;51.656;16.106;2023-05-29T14:12:16;1;1;1
77538;PMS7003;67783;51.656;16.106;2023-05-29T14:15:26;2;2;2
77538;PMS7003;67783;51.656;16.106;2023-05-29T14:18:27;2;2;1
77538;PMS7003;67783;51.656;16.106;2023-05-29T14:21:29;1;1;1
77538;PMS7003;67783;51.656;16.106;2023-05-29T14:24:31;2;2;1
77538;PMS7003;67783;51.656;16.106;2023-05-29T14:27:32;2;1;1
77538;PMS7003;67783;51.656;16.106;2023-05-29T14:30:34;2;1;1
77538;PMS7003;67783;51.656;16.106;2023-05-29T14:33:36;0;0;0
77538;PMS7003;67783;51.656;16.106;2023-05-29T14:36:41;3;2;2
77538;PMS7003;67783;51.656;16.106;2023-05-29T14:41:38;2;2;1
77538;PMS7003;67783;51.656;16.106;2023-05-29T14:44:40;2;1;1
77538;PMS7003;67783;51.656;16.106;2023-05-29T14:47:41;4;2;1
77538;PMS7003;67783;51.656;16.106;2023-05-29T14:50:43;2;2;1
77538;PMS7003;67783;51.656;16.106;2023-05-29T14:53:44;3;2;2
77538;PMS7003;67783;51.656;16.106;2023-05-29T14:56:46;2;1;1
77538;PMS7003;67783;51.656;16.106;2023-05-29T14:59:52;1;1;1
77538;PMS7003;67783;51.656;16.106;2023-05-29T15:02:53;2;1;1
77538;PMS7003;67783;51.656;16.106;2023-05-29T15:05:59;1;1;1
77538;PMS7003;67783;51.656;16.106;2023-05-29T15:09:01;2;2;1
77538;PMS7003;67783;51.656;16.106;2023-05-29T15:12:02;2;2;1
77538;PMS7003;67783;51.656;16.106;2023-05-29T15:15:12;1;1;0
77538;PMS7003;67783;51.656;16.106;2023-05-29T15:18:14;2;2;1
77538;PMS7003;67783;51.656;16.106;2023-05-29T15:21:15;2;1;1
77538;PMS7003;67783;51.656;16.106;2023-05-29T15:24:17;4;4;2
77538;PMS7003;67783;51.656;16.106;2023-05-29T15:27:19;2;2;1
77538;PMS7003;67783;51.656;16.106;2023-05-29T15:30:21;2;2;1
77538;PMS7003;67783;51.656;16.106;2023-05-29T15:33:23;1;1;0
77538;PMS7003;67783;51.656;16.106;2023-05-29T15:36:28;1;1;1
77538;PMS7003;67783;51.656;16.106;2023-05-29T15:39:30;2;2;1
77538;PMS7003;67783;51.656;16.106;2023-05-29T15:42:31;2;2;2
77538;PMS7003;67783;51.656;16.106;2023-05-29T15:45:33;2;2;1
77538;PMS7003;67783;51.656;16.106;2023-05-29T15:48:35;4;1;1
77538;PMS7003;67783;51.656;16.106;2023-05-29T15:51:36;2;2;2
77538;PMS7003;67783;51.656;16.106;2023-05-29T15:54:44;2;2;2
77538;PMS7003;67783;51.656;16.106;2023-05-29T15:57:49;4;1;1
77538;PMS7003;67783;51.656;16.106;2023-05-29T16:00:51;1;1;1
77538;PMS7003;67783;51.656;16.106;2023-05-29T16:03:53;1;1;1
77538;PMS7003;67783;51.656;16.106;2023-05-29T16:06:56;1;1;1
77538;PMS7003;67783;51.656;16.106;2023-05-29T16:09:57;1;1;1
77538;PMS7003;67783;51.656;16.106;2023-05-29T16:12:59;1;1;1
77538;PMS7003;67783;51.656;16.106;2023-05-29T16:16:00;1;1;0
77538;PMS7003;67783;51.656;16.106;2023-05-29T16:19:05;2;2;1
77538;PMS7003;67783;51.656;16.106;2023-05-29T16:22:07;2;2;1
77538;PMS7003;67783;51.656;16.106;2023-05-29T16:25:09;1;1;1
77538;PMS7003;67783;51.656;16.106;2023-05-29T16:28:11;0;0;0
77538;PMS7003;67783;51.656;16.106;2023-05-29T16:31:12;1;1;1
77538;PMS7003;67783;51.656;16.106;2023-05-29T16:34:14;3;3;3
77538;PMS7003;67783;51.656;16.106;2023-05-29T16:37:17;2;2;2
77538;PMS7003;67783;51.656;16.106;2023-05-29T16:40:22;1;1;0
77538;PMS7003;67783;51.656;16.106;2023-05-29T16:43:24;1;1;0
77538;PMS7003;67783;51.656;16.106;2023-05-29T16:46:26;2;0;0
77538;PMS7003;67783;51.656;16.106;2023-05-29T16:49:28;2;1;1
77538;PMS7003;67783;51.656;16.106;2023-05-29T16:52:29;2;2;1
77538;PMS7003;67783;51.656;16.106;2023-05-29T16:55:31;2;2;2
77538;PMS7003;67783;51.656;16.106;2023-05-29T16:58:33;1;1;1
77538;PMS7003;67783;51.656;16.106;2023-05-29T17:01:37;2;2;0
77538;PMS7003;67783;51.656;16.106;2023-05-29T17:04:39;2;1;1
77538;PMS7003;67783;51.656;16.106;2023-05-29T17:07:40;1;1;1
77538;PMS7003;67783;51.656;16.106;2023-05-29T17:10:42;1;1;1
77538;PMS7003;67783;51.656;16.106;2023-05-29T17:13:48;2;1;0
77538;PMS7003;67783;51.656;16.106;2023-05-29T17:16:58;4;2;1
77538;PMS7003;67783;51.656;16.106;2023-05-29T17:19:59;1;1;1
77538;PMS7003;67783;51.656;16.106;2023-05-29T17:23:04;1;1;1
77538;PMS7003;67783;51.656;16.106;2023-05-29T17:26:05;1;1;1
77538;PMS7003;67783;51.656;16.106;2023-05-29T17:29:07;1;1;1
77538;PMS7003;67783;51.656;16.106;2023-05-29T17:32:18;1;1;0
77538;PMS7003;67783;51.656;16.106;2023-05-29T17:35:21;2;1;0
77538;PMS7003;67783;51.656;16.106;2023-05-29T17:38:23;4;2;1
77538;PMS7003;67783;51.656;16.106;2023-05-29T17:41:24;1;1;1
77538;PMS7003;67783;51.656;16.106;2023-05-29T17:44:27;2;2;1
77538;PMS7003;67783;51.656;16.106;2023-05-29T17:47:39;0;0;0
77538;PMS7003;67783;51.656;16.106;2023-05-29T17:50:41;2;0;0
77538;PMS7003;67783;51.656;16.106;2023-05-29T17:53:42;2;1;1
77538;PMS7003;67783;51.656;16.106;2023-05-29T17:56:44;1;1;1
77538;PMS7003;67783;51.656;16.106;2023-05-29T17:59:46;0;0;0
77538;PMS7003;67783;51.656;16.106;2023-05-29T18:02:48;0;0;0
77538;PMS7003;67783;51.656;16.106;2023-05-29T18:05:49;2;1;1
77538;PMS7003;67783;51.656;16.106;2023-05-29T18:08:54;1;1;1
77538;PMS7003;67783;51.656;16.106;2023-05-29T18:11:56;1;1;1
77538;PMS7003;67783;51.656;16.106;2023-05-29T18:14:57;0;0;0
77538;PMS7003;67783;51.656;16.106;2023-05-29T18:17:59;1;1;1
77538;PMS7003;67783;51.656;16.106;2023-05-29T18:21:01;0;0;0
77538;PMS7003;67783;51.656;16.106;2023-05-29T18:24:03;2;2;1
77538;PMS7003;67783;51.656;16.106;2023-05-29T18:27:05;1;1;1
77538;PMS7003;67783;51.656;16.106;2023-05-29T18:30:10;2;1;0
77538;PMS7003;67783;51.656;16.106;2023-05-29T18:33:13;1;1;1
77538;PMS7003;67783;51.656;16.106;2023-05-29T18:36:15;3;0;0
77538;PMS7003;67783;51.656;16.106;2023-05-29T18:39:18;1;1;1
77538;PMS7003;67783;51.656;16.106;2023-05-29T18:42:20;3;2;1
77538;PMS7003;67783;51.656;16.106;2023-05-29T18:45:31;1;0;0
77538;PMS7003;67783;51.656;16.106;2023-05-29T18:48:32;2;1;1
77538;PMS7003;67783;51.656;16.106;2023-05-29T18:51:34;1;1;1
77538;PMS7003;67783;51.656;16.106;2023-05-29T18:54:37;1;1;1
77538;PMS7003;67783;51.656;16.106;2023-05-29T18:57:38;2;2;2
77538;PMS7003;67783;51.656;16.106;2023-05-29T19:00:40;2;2;1
77538;PMS7003;67783;51.656;16.106;2023-05-29T19:03:41;0;0;0
77538;PMS7003;67783;51.656;16.106;2023-05-29T19:06:46;1;1;0
77538;PMS7003;67783;51.656;16.106;2023-05-29T19:09:49;0;0;0
77538;PMS7003;67783;51.656;16.106;2023-05-29T19:12:50;1;1;1
77538;PMS7003;67783;51.656;16.106;2023-05-29T19:15:52;2;2;1
77538;PMS7003;67783;51.656;16.106;2023-05-29T19:18:54;1;1;1
77538;PMS7003;67783;51.656;16.106;2023-05-29T19:22:07;5;2;2
77538;PMS7003;67783;51.656;16.106;2023-05-29T19:25:09;2;1;1
77538;PMS7003;67783;51.656;16.106;2023-05-29T19:28:11;3;1;1
77538;PMS7003;67783;51.656;16.106;2023-05-29T19:31:12;2;2;1
77538;PMS7003;67783;51.656;16.106;2023-05-29T19:34:14;1;1;1
77538;PMS7003;67783;51.656;16.106;2023-05-29T19:37:16;0;0;0
77538;PMS7003;67783;51.656;16.106;2023-05-29T19:40:17;2;2;1
77538;PMS7003;67783;51.656;16.106;2023-05-29T19:43:22;1;1;1
77538;PMS7003;67783;51.656;16.106;2023-05-29T19:46:28;2;2;2
77538;PMS7003;67783;51.656;16.106;2023-05-29T19:49:30;3;1;1
77538;PMS7003;67783;51.656;16.106;2023-05-29T19:52:32;5;1;1
77538;PMS7003;67783;51.656;16.106;2023-05-29T19:55:35;1;1;1
77538;PMS7003;67783;51.656;16.106;2023-05-29T19:58:42;0;0;0
77538;PMS7003;67783;51.656;16.106;2023-05-29T20:01:44;4;2;1
77538;PMS7003;67783;51.656;16.106;2023-05-29T20:04:46;1;1;1
77538;PMS7003;67783;51.656;16.106;2023-05-29T20:07:47;1;1;1
77538;PMS7003;67783;51.656;16.106;2023-05-29T20:10:49;2;2;2
77538;PMS7003;67783;51.656;16.106;2023-05-29T20:13:50;2;2;1
77538;PMS7003;67783;51.656;16.106;2023-05-29T20:16:52;2;1;1
77538;PMS7003;67783;51.656;16.106;2023-05-29T20:19:57;1;1;1
77538;PMS7003;67783;51.656;16.106;2023-05-29T20:22:59;3;3;2
77538;PMS7003;67783;51.656;16.106;2023-05-29T20:26:00;3;2;2
77538;PMS7003;67783;51.656;16.106;2023-05-29T20:29:02;1;1;1
77538;PMS7003;67783;51.656;16.106;2023-05-29T20:32:04;2;2;1
77538;PMS7003;67783;51.656;16.106;2023-05-29T20:35:07;1;1;1
77538;PMS7003;67783;51.656;16.106;2023-05-29T20:38:17;2;2;1
77538;PMS7003;67783;51.656;16.106;2023-05-29T20:41:21;2;2;1
77538;PMS7003;67783;51.656;16.106;2023-05-29T20:44:24;4;2;1
77538;PMS7003;67783;51.656;16.106;2023-05-29T20:47:30;1;1;1
77538;PMS7003;67783;51.656;16.106;2023-05-29T20:50:31;1;1;1